createdAt,value
2017-08-11T00:01:12.806Z,6.50
2017-08-11T00:03:40.301Z,7.03
2017-08-11T00:06:07.790Z,6.10
2017-08-11T00:08:35.252Z,6.50
2017-08-11T00:11:02.743Z,6.80
2017-08-11T00:13:30.205Z,6.60
2017-08-11T00:15:57.677Z,6.10
2017-08-11T00:18:25.137Z,6.77
2017-08-11T00:20:52.635Z,6.60
2017-08-11T00:23:20.230Z,6.77
2017-08-11T00:25:47.687Z,6.10
2017-08-11T00:28:15.138Z,6.23
2017-08-11T00:30:42.621Z,6.33
2017-08-11T00:33:10.070Z,7.00
2017-08-11T00:35:37.566Z,6.70
2017-08-11T00:38:05.017Z,7.00
2017-08-11T00:40:32.497Z,7.03
2017-08-11T00:42:59.969Z,7.07
2017-08-11T00:45:27.480Z,7.33
2017-08-11T00:47:54.968Z,6.97
2017-08-11T00:50:22.450Z,7.63
2017-08-11T00:52:49.941Z,7.33
2017-08-11T00:55:17.385Z,7.50
2017-08-11T00:57:44.861Z,6.83
2017-08-11T01:00:12.310Z,8.00
2017-08-11T01:02:39.801Z,8.17
2017-08-11T01:05:07.268Z,7.30
2017-08-11T01:07:34.770Z,7.83
2017-08-11T01:10:02.267Z,7.67
2017-08-11T01:12:29.763Z,7.83
2017-08-11T01:14:57.234Z,7.40
2017-08-11T01:17:24.721Z,7.80
2017-08-11T01:19:52.185Z,7.70
2017-08-11T01:22:19.679Z,7.37
2017-08-11T01:24:47.169Z,6.97
2017-08-11T01:27:14.637Z,7.70
2017-08-11T01:29:42.125Z,7.53
2017-08-11T01:32:09.572Z,7.47
2017-08-11T01:34:37.048Z,6.90
2017-08-11T01:37:04.549Z,6.77
2017-08-11T01:39:32.032Z,6.57
2017-08-11T01:41:59.498Z,7.20
2017-08-11T01:44:26.974Z,6.93
2017-08-11T01:46:54.430Z,6.67
2017-08-11T01:49:21.947Z,7.07
2017-08-11T01:51:50.353Z,6.30
2017-08-11T01:54:17.806Z,7.17
2017-08-11T01:56:45.295Z,8.00
2017-08-11T01:59:12.758Z,7.50
2017-08-11T02:01:40.240Z,7.10
2017-08-11T02:04:07.684Z,7.07
2017-08-11T02:06:35.153Z,7.33
2017-08-11T02:09:02.623Z,7.30
2017-08-11T02:11:30.139Z,7.00
2017-08-11T02:13:57.607Z,6.23
2017-08-11T02:16:25.080Z,6.90
2017-08-11T02:18:52.532Z,7.03
2017-08-11T02:21:20.026Z,6.37
2017-08-11T02:23:47.529Z,6.40
2017-08-11T02:26:14.986Z,7.20
2017-08-11T02:28:42.476Z,6.90
2017-08-11T02:31:09.953Z,7.40
2017-08-11T02:33:37.425Z,5.77
2017-08-11T02:36:04.918Z,6.50
2017-08-11T02:38:32.395Z,7.07
2017-08-11T02:40:59.878Z,7.33
2017-08-11T02:43:27.363Z,7.33
2017-08-11T02:45:54.829Z,6.90
2017-08-11T02:48:22.264Z,7.27
2017-08-11T02:50:49.747Z,7.43
2017-08-11T02:53:17.189Z,7.77
2017-08-11T02:55:44.685Z,8.00
2017-08-11T02:58:12.147Z,7.87
2017-08-11T03:00:39.643Z,7.83
2017-08-11T03:03:07.093Z,7.90
2017-08-11T03:05:34.596Z,9.50
2017-08-11T03:08:02.040Z,8.47
2017-08-11T03:10:29.517Z,8.00
2017-08-11T03:12:56.971Z,8.13
2017-08-11T03:15:24.569Z,8.30
2017-08-11T03:17:52.017Z,8.50
2017-08-11T03:20:19.465Z,8.50
2017-08-11T03:22:46.937Z,7.67
2017-08-11T03:25:14.463Z,7.57
2017-08-11T03:27:41.948Z,8.20
2017-08-11T03:30:09.441Z,8.13
2017-08-11T03:32:36.936Z,8.10
2017-08-11T03:35:04.431Z,8.30
2017-08-11T03:37:31.908Z,8.10
2017-08-11T03:39:59.403Z,8.90
2017-08-11T03:42:26.858Z,7.50
2017-08-11T03:44:54.355Z,7.63
2017-08-11T03:47:21.813Z,8.40
2017-08-11T03:49:49.294Z,7.87
2017-08-11T03:52:16.757Z,8.00
2017-08-11T03:54:44.221Z,7.90
2017-08-11T03:57:11.685Z,6.97
2017-08-11T03:59:39.166Z,8.70
2017-08-11T04:02:06.618Z,7.67
2017-08-11T04:04:34.104Z,7.23
2017-08-11T04:07:01.554Z,7.53
2017-08-11T04:09:29.091Z,7.30
2017-08-11T04:11:56.577Z,7.80
2017-08-11T04:14:24.038Z,8.07
2017-08-11T04:16:51.513Z,7.60
2017-08-11T04:19:18.998Z,8.03
2017-08-11T04:21:46.474Z,7.80
2017-08-11T04:24:13.935Z,7.10
2017-08-11T04:26:41.415Z,7.53
2017-08-11T04:29:08.911Z,8.60
2017-08-11T04:31:36.390Z,8.13
2017-08-11T04:34:03.866Z,7.93
2017-08-11T04:36:31.327Z,8.00
2017-08-11T04:38:58.802Z,7.90
2017-08-11T04:41:26.266Z,8.77
2017-08-11T04:43:53.754Z,7.77
2017-08-11T04:46:21.235Z,8.50
2017-08-11T04:48:48.725Z,8.30
2017-08-11T04:51:16.212Z,8.00
2017-08-11T04:53:43.686Z,7.60
2017-08-11T04:56:11.145Z,8.60
2017-08-11T04:58:38.642Z,8.77
2017-08-11T05:01:06.138Z,7.60
2017-08-11T05:03:33.591Z,7.73
2017-08-11T05:06:01.090Z,8.00
2017-08-11T05:08:28.558Z,7.70
2017-08-11T05:10:56.044Z,7.37
2017-08-11T05:13:23.518Z,7.53
2017-08-11T05:15:51.113Z,7.40
2017-08-11T05:18:18.578Z,8.40
2017-08-11T05:20:46.041Z,8.07
2017-08-11T05:23:13.529Z,8.50
2017-08-11T05:25:40.993Z,9.20
2017-08-11T05:28:09.692Z,9.00
2017-08-11T05:30:37.161Z,9.57
2017-08-11T05:33:04.657Z,9.20
2017-08-11T05:35:32.148Z,9.30
2017-08-11T05:37:59.655Z,8.63
2017-08-11T05:40:27.222Z,9.60
2017-08-11T05:42:54.715Z,9.30
2017-08-11T05:45:22.197Z,9.70
2017-08-11T05:47:49.686Z,9.73
2017-08-11T05:50:17.238Z,9.73
2017-08-11T05:52:44.690Z,10.97
2017-08-11T05:55:12.197Z,9.63
2017-08-11T05:57:39.679Z,10.70
2017-08-11T06:00:07.162Z,9.37
2017-08-11T06:02:34.685Z,10.70
2017-08-11T06:05:02.162Z,10.10
2017-08-11T06:07:29.662Z,10.00
2017-08-11T06:09:57.144Z,10.10
2017-08-11T06:12:24.681Z,10.60
2017-08-11T06:14:52.167Z,10.07
2017-08-11T06:17:19.691Z,10.17
2017-08-11T06:19:47.165Z,9.83
2017-08-11T06:22:14.646Z,9.90
2017-08-11T06:24:42.114Z,9.73
2017-08-11T06:27:09.761Z,10.43
2017-08-11T06:29:37.234Z,10.70
2017-08-11T06:32:04.701Z,11.00
2017-08-11T06:34:32.171Z,9.93
2017-08-11T06:36:59.662Z,10.03
2017-08-11T06:39:27.156Z,10.30
2017-08-11T06:41:54.614Z,10.30
2017-08-11T06:44:22.114Z,10.00
2017-08-11T06:46:49.590Z,10.20
2017-08-11T06:49:17.091Z,9.77
2017-08-11T06:51:44.551Z,9.47
2017-08-11T06:54:12.050Z,8.90
2017-08-11T06:56:40.111Z,9.90
2017-08-11T06:59:07.600Z,9.30
2017-08-11T07:01:35.097Z,9.00
2017-08-11T07:04:02.694Z,8.47
2017-08-11T07:06:30.163Z,8.80
2017-08-11T07:08:57.676Z,9.03
2017-08-11T07:11:25.207Z,8.60
2017-08-11T07:13:52.664Z,9.47
2017-08-11T07:16:20.159Z,8.73
2017-08-11T07:18:47.630Z,9.07
2017-08-11T07:21:15.128Z,8.90
2017-08-11T07:23:42.629Z,10.03
2017-08-11T07:26:10.121Z,8.43
2017-08-11T07:28:37.655Z,9.00
2017-08-11T07:31:05.106Z,9.40
2017-08-11T07:33:32.623Z,9.40
2017-08-11T07:36:00.085Z,9.03
2017-08-11T07:38:28.179Z,9.50
2017-08-11T07:40:55.684Z,9.03
2017-08-11T07:43:24.018Z,9.13
2017-08-11T07:45:52.506Z,9.70
2017-08-11T07:48:19.967Z,8.90
2017-08-11T07:50:47.444Z,9.73
2017-08-11T07:53:14.960Z,9.57
2017-08-11T07:55:42.488Z,8.83
2017-08-11T07:58:09.996Z,9.30
2017-08-11T08:00:37.503Z,9.40
2017-08-11T08:03:04.960Z,9.10
2017-08-11T08:05:32.462Z,9.80
2017-08-11T08:07:59.947Z,10.07
2017-08-11T08:10:27.447Z,10.90
2017-08-11T08:12:54.947Z,10.80
2017-08-11T08:15:22.445Z,11.17
2017-08-11T08:17:49.955Z,10.27
2017-08-11T08:20:18.285Z,13.20
2017-08-11T08:22:45.947Z,11.93
2017-08-11T08:25:13.426Z,13.50
2017-08-11T08:27:40.936Z,14.13
2017-08-11T08:30:08.409Z,13.00
2017-08-11T08:32:38.005Z,13.90
2017-08-11T08:35:05.487Z,14.70
2017-08-11T08:37:32.989Z,14.57
2017-08-11T08:40:00.507Z,14.87
2017-08-11T08:42:28.036Z,14.27
2017-08-11T08:44:55.522Z,14.33
2017-08-11T08:47:23.034Z,14.50
2017-08-11T08:49:50.506Z,15.30
2017-08-11T08:52:18.001Z,14.90
2017-08-11T08:54:45.458Z,17.50
2017-08-11T08:57:13.606Z,16.30
2017-08-11T08:59:41.072Z,14.67
2017-08-11T09:02:08.701Z,16.93
2017-08-11T09:04:36.818Z,17.20
2017-08-11T09:07:04.326Z,16.87
2017-08-11T09:09:32.135Z,16.27
2017-08-11T09:11:59.620Z,15.80
2017-08-11T09:14:27.119Z,19.23
2017-08-11T09:16:54.605Z,15.50
2017-08-11T09:19:22.110Z,16.80
2017-08-11T09:21:49.694Z,16.60
2017-08-11T09:24:28.854Z,19.50
2017-08-11T09:27:17.018Z,18.40
2017-08-11T09:29:56.173Z,15.77
2017-08-11T09:32:35.375Z,16.03
2017-08-11T09:35:14.547Z,15.80
2017-08-11T09:37:41.597Z,15.47
2017-08-11T09:40:09.090Z,14.97
2017-08-11T09:42:36.642Z,15.60
2017-08-11T09:45:04.126Z,15.17
2017-08-11T09:47:31.643Z,19.47
2017-08-11T09:49:59.133Z,17.20
2017-08-11T09:52:26.831Z,17.50
2017-08-11T09:54:54.333Z,18.00
2017-08-11T09:57:21.892Z,16.83
2017-08-11T09:59:49.385Z,16.80
2017-08-11T10:02:16.878Z,17.30
2017-08-11T10:04:44.383Z,18.00
2017-08-11T10:07:11.897Z,16.43
2017-08-11T10:09:39.423Z,16.57
2017-08-11T10:12:06.949Z,19.70
2017-08-11T10:14:34.530Z,16.80
2017-08-11T10:17:02.035Z,17.53
2017-08-11T10:19:29.512Z,17.70
2017-08-11T10:21:57.003Z,17.07
2017-08-11T10:24:24.492Z,17.30
2017-08-11T10:26:52.980Z,16.57
2017-08-11T10:29:20.444Z,16.93
2017-08-11T10:31:47.930Z,16.27
2017-08-11T10:34:15.417Z,16.73
2017-08-11T10:36:42.905Z,16.77
2017-08-11T10:39:10.381Z,16.37
2017-08-11T10:41:37.880Z,14.90
2017-08-11T10:44:05.365Z,14.27
2017-08-11T10:46:33.051Z,13.90
2017-08-11T10:49:00.538Z,13.40
2017-08-11T10:51:28.021Z,19.37
2017-08-11T10:53:55.587Z,13.43
2017-08-11T10:56:23.147Z,12.90
2017-08-11T10:58:50.674Z,13.67
2017-08-11T11:01:18.134Z,13.70
2017-08-11T11:03:45.614Z,13.43
2017-08-11T11:06:13.120Z,13.70
2017-08-11T11:08:40.573Z,14.80
2017-08-11T11:11:08.121Z,14.97
2017-08-11T11:13:35.577Z,14.17
2017-08-11T11:16:03.058Z,13.37
2017-08-11T11:18:30.563Z,12.60
2017-08-11T11:20:58.067Z,12.77
2017-08-11T11:23:25.521Z,12.83
2017-08-11T11:25:52.999Z,12.33
2017-08-11T11:28:20.578Z,11.70
2017-08-11T11:30:48.134Z,12.03
2017-08-11T11:33:15.643Z,12.30
2017-08-11T11:35:43.141Z,19.50
2017-08-11T11:38:10.668Z,12.80
2017-08-11T11:40:38.275Z,12.00
2017-08-11T11:43:05.841Z,11.13
2017-08-11T11:45:33.393Z,11.37
2017-08-11T11:48:00.942Z,10.20
2017-08-11T11:50:28.456Z,9.87
2017-08-11T11:52:55.936Z,10.43
2017-08-11T11:55:24.457Z,10.60
2017-08-11T11:57:51.905Z,9.50
2017-08-11T12:00:19.386Z,10.40
2017-08-11T12:02:46.842Z,9.70
2017-08-11T12:05:14.352Z,10.80
2017-08-11T12:07:41.843Z,8.70
2017-08-11T12:10:09.306Z,8.47
2017-08-11T12:12:36.843Z,8.53
2017-08-11T12:15:05.137Z,8.90
2017-08-11T12:17:32.635Z,8.57
2017-08-11T12:20:00.168Z,8.50
2017-08-11T12:22:27.718Z,8.10
2017-08-11T12:24:55.227Z,9.50
2017-08-11T12:27:22.703Z,8.60
2017-08-11T12:29:50.620Z,8.40
2017-08-11T12:32:18.080Z,8.33
2017-08-11T12:34:45.738Z,8.80
2017-08-11T12:37:13.233Z,8.27
2017-08-11T12:39:40.692Z,38.60
2017-08-11T12:42:08.164Z,8.10
2017-08-11T12:44:35.659Z,7.10
2017-08-11T12:47:03.155Z,7.00
2017-08-11T12:49:30.615Z,6.77
2017-08-11T12:51:58.089Z,6.67
2017-08-11T12:54:25.595Z,7.17
2017-08-11T12:56:53.125Z,7.30
2017-08-11T12:59:21.403Z,6.20
2017-08-11T13:01:48.881Z,7.60
2017-08-11T13:04:17.343Z,7.07
2017-08-11T13:06:44.858Z,6.50
2017-08-11T13:09:12.417Z,6.53
2017-08-11T13:11:39.916Z,7.20
2017-08-11T13:14:07.427Z,6.70
2017-08-11T13:16:34.941Z,7.93
2017-08-11T13:19:02.431Z,8.37
2017-08-11T13:21:29.202Z,7.30
2017-08-11T13:23:56.673Z,8.07
2017-08-11T13:26:24.157Z,8.40
2017-08-11T13:28:52.433Z,7.77
2017-08-11T13:31:19.900Z,7.30
2017-08-11T13:33:47.387Z,8.50
2017-08-11T13:36:14.891Z,7.80
2017-08-11T13:38:42.345Z,7.87
2017-08-11T13:41:09.856Z,7.50
2017-08-11T13:43:37.342Z,7.87
2017-08-11T13:46:04.827Z,8.60
2017-08-11T13:48:32.285Z,9.10
2017-08-11T13:50:59.794Z,9.33
2017-08-11T13:53:27.237Z,7.20
2017-08-11T13:55:55.259Z,8.37
2017-08-11T13:58:22.712Z,8.50
2017-08-11T14:00:50.190Z,8.43
2017-08-11T14:03:17.707Z,9.60
2017-08-11T14:05:45.177Z,7.80
2017-08-11T14:08:12.700Z,7.60
2017-08-11T14:10:40.196Z,6.43
2017-08-11T14:13:07.702Z,7.80
2017-08-11T14:15:35.152Z,8.13
2017-08-11T14:18:02.630Z,7.50
2017-08-11T14:20:30.139Z,8.00
2017-08-11T14:22:57.650Z,6.93
2017-08-11T14:25:25.158Z,7.90
2017-08-11T14:27:53.170Z,7.07
2017-08-11T14:30:20.659Z,7.03
2017-08-11T14:32:48.118Z,6.73
2017-08-11T14:35:15.633Z,9.00
2017-08-11T14:37:43.173Z,8.30
2017-08-11T14:40:10.683Z,7.63
2017-08-11T14:42:38.153Z,7.93
2017-08-11T14:45:05.654Z,7.60
2017-08-11T14:47:33.284Z,7.67
2017-08-11T14:50:00.800Z,8.37
2017-08-11T14:52:28.316Z,8.40
2017-08-11T14:54:55.826Z,7.30
2017-08-11T14:57:23.362Z,7.50
2017-08-11T14:59:50.856Z,7.93
2017-08-11T15:02:18.315Z,7.57
2017-08-11T15:04:45.869Z,7.20
2017-08-11T15:07:13.363Z,8.17
2017-08-11T15:09:40.835Z,8.23
2017-08-11T15:12:08.284Z,8.30
2017-08-11T15:14:35.769Z,8.20
2017-08-11T15:17:03.230Z,7.43
2017-08-11T15:19:30.709Z,8.90
2017-08-11T15:21:58.162Z,10.00
2017-08-11T15:24:25.673Z,9.10
2017-08-11T15:26:53.211Z,8.77
2017-08-11T15:29:20.685Z,11.37
2017-08-11T15:31:48.182Z,10.00
2017-08-11T15:34:15.658Z,8.40
2017-08-11T15:36:43.178Z,10.63
2017-08-11T15:39:10.652Z,10.13
2017-08-11T15:41:38.127Z,10.47
2017-08-11T15:44:05.614Z,11.17
2017-08-11T15:46:33.088Z,10.40
2017-08-11T15:49:00.600Z,9.90
2017-08-11T15:51:28.915Z,10.40
2017-08-11T15:53:56.398Z,10.17
2017-08-11T15:56:23.861Z,10.20
2017-08-11T15:58:51.411Z,11.27
2017-08-11T16:01:19.838Z,10.80
2017-08-11T16:03:47.324Z,11.40
2017-08-11T16:06:14.830Z,11.80
2017-08-11T16:08:42.354Z,11.70
2017-08-11T16:11:09.857Z,12.83
2017-08-11T16:13:37.359Z,12.90
2017-08-11T16:16:04.877Z,11.70
2017-08-11T16:18:32.395Z,12.20
2017-08-11T16:21:00.767Z,13.50
2017-08-11T16:23:28.273Z,12.37
2017-08-11T16:25:55.770Z,12.30
2017-08-11T16:28:23.231Z,13.10
2017-08-11T16:30:50.747Z,11.90
2017-08-11T16:33:18.266Z,12.00
2017-08-11T16:35:45.742Z,12.17
2017-08-11T16:38:13.231Z,11.43
2017-08-11T16:40:40.691Z,14.90
2017-08-11T16:43:08.165Z,13.87
2017-08-11T16:45:35.655Z,11.93
2017-08-11T16:48:03.160Z,13.77
2017-08-11T16:50:30.669Z,12.50
2017-08-11T16:52:58.176Z,12.77
2017-08-11T16:55:25.998Z,13.10
2017-08-11T16:57:53.482Z,13.07
2017-08-11T17:00:20.962Z,13.13
2017-08-11T17:02:48.467Z,14.93
2017-08-11T17:05:15.937Z,14.33
2017-08-11T17:07:43.425Z,13.63
2017-08-11T17:10:10.915Z,16.17
2017-08-11T17:12:38.371Z,14.27
2017-08-11T17:15:05.925Z,14.23
2017-08-11T17:17:33.419Z,14.83
2017-08-11T17:20:00.894Z,14.20
2017-08-11T17:22:28.374Z,14.47
2017-08-11T17:24:55.832Z,14.80
2017-08-11T17:27:23.607Z,13.60
2017-08-11T17:29:51.101Z,13.90
2017-08-11T17:32:18.590Z,15.90
2017-08-11T17:34:46.774Z,14.77
2017-08-11T17:37:14.308Z,13.87
2017-08-11T17:39:41.843Z,14.77
2017-08-11T17:42:09.310Z,14.40
2017-08-11T17:44:36.810Z,15.93
2017-08-11T17:47:04.272Z,16.73
2017-08-11T17:49:31.770Z,14.60
2017-08-11T17:51:59.241Z,15.30
2017-08-11T17:54:26.729Z,15.43
2017-08-11T17:56:54.216Z,12.93
2017-08-11T17:59:21.676Z,16.17
2017-08-11T18:01:49.181Z,14.47
2017-08-11T18:04:16.645Z,14.03
2017-08-11T18:06:44.134Z,16.70
2017-08-11T18:09:11.611Z,15.47
2017-08-11T18:11:39.114Z,16.40
2017-08-11T18:14:06.601Z,18.63
2017-08-11T18:16:34.148Z,19.17
2017-08-11T18:19:01.651Z,19.80
2017-08-11T18:21:29.138Z,17.90
2017-08-11T18:23:56.597Z,16.03
2017-08-11T18:26:24.132Z,17.10
2017-08-11T18:28:51.629Z,17.33
2017-08-11T18:31:19.105Z,17.40
2017-08-11T18:33:46.614Z,17.77
2017-08-11T18:36:14.088Z,15.67
2017-08-11T18:38:41.574Z,15.70
2017-08-11T18:41:09.078Z,15.37
2017-08-11T18:43:36.603Z,17.97
2017-08-11T18:46:04.086Z,15.13
2017-08-11T18:48:31.726Z,16.07
2017-08-11T18:50:59.208Z,14.80
2017-08-11T18:53:26.669Z,14.97
2017-08-11T18:55:54.163Z,13.10
2017-08-11T18:58:21.627Z,14.97
2017-08-11T19:00:49.129Z,14.37
2017-08-11T19:03:16.590Z,13.30
2017-08-11T19:05:44.073Z,14.93
2017-08-11T19:08:11.567Z,17.37
2017-08-11T19:10:39.061Z,13.03
2017-08-11T19:13:06.550Z,13.60
2017-08-11T19:15:34.021Z,12.60
2017-08-11T19:18:01.506Z,15.63
2017-08-11T19:20:28.974Z,13.53
2017-08-11T19:22:56.473Z,12.57
2017-08-11T19:25:23.951Z,12.43
2017-08-11T19:27:51.468Z,12.53
2017-08-11T19:30:18.935Z,12.60
2017-08-11T19:32:46.434Z,13.53
2017-08-11T19:35:13.898Z,14.30
2017-08-11T19:37:41.398Z,12.60
2017-08-11T19:40:08.864Z,13.70
2017-08-11T19:42:36.382Z,25.70
2017-08-11T19:45:03.852Z,13.33
2017-08-11T19:47:31.371Z,11.40
2017-08-11T19:49:58.840Z,12.00
2017-08-11T19:52:26.343Z,13.03
2017-08-11T19:54:53.825Z,12.80
2017-08-11T19:57:21.283Z,13.03
2017-08-11T19:59:49.562Z,12.10
2017-08-11T20:02:17.048Z,12.53
2017-08-11T20:04:44.519Z,14.37
2017-08-11T20:07:12.039Z,11.83
2017-08-11T20:09:39.503Z,12.60
2017-08-11T20:12:06.998Z,10.93
2017-08-11T20:14:34.472Z,11.87
2017-08-11T20:17:01.966Z,13.07
2017-08-11T20:19:29.440Z,10.77
2017-08-11T20:21:56.940Z,11.53
2017-08-11T20:24:24.396Z,10.93
2017-08-11T20:26:51.898Z,13.43
2017-08-11T20:29:19.380Z,10.30
2017-08-11T20:31:46.887Z,9.57
2017-08-11T20:34:14.332Z,11.20
2017-08-11T20:36:41.827Z,11.43
2017-08-11T20:39:09.299Z,24.90
2017-08-11T20:41:36.785Z,21.67
2017-08-11T20:44:04.260Z,20.60
2017-08-11T20:46:31.762Z,16.07
2017-08-11T20:48:59.260Z,14.70
2017-08-11T20:51:26.771Z,13.03
2017-08-11T20:53:54.380Z,15.23
2017-08-11T20:56:21.837Z,15.53
2017-08-11T20:58:49.365Z,15.27
2017-08-11T21:01:16.861Z,16.77
2017-08-11T21:03:44.343Z,17.60
2017-08-11T21:06:11.840Z,13.77
2017-08-11T21:08:39.307Z,13.47
2017-08-11T21:11:06.805Z,14.10
2017-08-11T21:13:34.266Z,23.10
2017-08-11T21:16:01.814Z,15.13
2017-08-11T21:18:29.279Z,14.30
2017-08-11T21:20:56.772Z,13.70
2017-08-11T21:23:24.240Z,13.23
2017-08-11T21:25:51.721Z,12.90
2017-08-11T21:28:19.188Z,12.30
2017-08-11T21:30:46.686Z,12.70
2017-08-11T21:33:14.178Z,12.50
2017-08-11T21:35:41.632Z,11.67
2017-08-11T21:38:09.113Z,10.83
2017-08-11T21:40:36.621Z,11.80
2017-08-11T21:43:04.110Z,12.73
2017-08-11T21:45:31.606Z,10.90
2017-08-11T21:47:59.071Z,11.80
2017-08-11T21:50:26.548Z,12.10
2017-08-11T21:52:54.013Z,12.17
2017-08-11T21:55:21.481Z,12.40
2017-08-11T21:57:48.945Z,10.60
2017-08-11T22:00:16.434Z,12.20
2017-08-11T22:02:43.890Z,11.27
2017-08-11T22:05:11.424Z,14.13
2017-08-11T22:07:38.902Z,12.07
2017-08-11T22:10:06.487Z,12.70
2017-08-11T22:12:33.949Z,12.60
2017-08-11T22:15:01.443Z,13.47
2017-08-11T22:17:28.934Z,16.00
2017-08-11T22:19:56.428Z,15.30
2017-08-11T22:22:23.907Z,13.80
2017-08-11T22:24:51.423Z,16.43
2017-08-11T22:27:18.890Z,15.10
2017-08-11T22:29:46.373Z,13.43
2017-08-11T22:32:13.887Z,14.33
2017-08-11T22:34:42.377Z,13.00
2017-08-11T22:37:09.871Z,14.43
2017-08-11T22:39:37.406Z,15.47
2017-08-11T22:42:04.874Z,15.63
2017-08-11T22:44:32.456Z,15.50
2017-08-11T22:46:59.905Z,16.50
2017-08-11T22:49:27.381Z,15.50
2017-08-11T22:51:54.882Z,14.70
2017-08-11T22:54:22.388Z,15.93
2017-08-11T22:56:49.878Z,16.47
2017-08-11T22:59:17.352Z,20.10
2017-08-11T23:01:44.862Z,15.80
2017-08-11T23:04:12.329Z,15.07
2017-08-11T23:06:40.290Z,16.10
2017-08-11T23:09:07.749Z,16.40
2017-08-11T23:11:35.258Z,18.17
2017-08-11T23:14:02.779Z,18.07
2017-08-11T23:16:30.253Z,17.33
2017-08-11T23:18:57.748Z,15.23
2017-08-11T23:21:25.218Z,15.53
2017-08-11T23:23:52.710Z,16.87
2017-08-11T23:26:20.185Z,16.60
2017-08-11T23:28:47.677Z,15.37
2017-08-11T23:31:15.168Z,16.43
2017-08-11T23:33:42.680Z,15.90
2017-08-11T23:36:10.164Z,17.80
2017-08-11T23:38:37.653Z,15.60
2017-08-11T23:41:05.185Z,15.90
2017-08-11T23:43:32.653Z,15.67
2017-08-11T23:46:00.140Z,17.70
2017-08-11T23:48:27.604Z,14.40
2017-08-11T23:50:55.081Z,16.53
2017-08-11T23:53:22.564Z,15.20
2017-08-11T23:55:50.013Z,16.20
2017-08-11T23:58:17.492Z,15.60
